sensor_id;sensor_type;location;lat;lon;timestamp;temperature;humidity
563;DHT22;266;49.514;8.294;2022-07-17T00:00:43;17.30;99.90
563;DHT22;266;49.514;8.294;2022-07-17T00:03:12;17.30;99.90
563;DHT22;266;49.514;8.294;2022-07-17T00:05:42;17.40;99.90
563;DHT22;266;49.514;8.294;2022-07-17T00:08:11;17.40;99.90
563;DHT22;266;49.514;8.294;2022-07-17T00:10:41;17.40;99.90
563;DHT22;266;49.514;8.294;2022-07-17T00:13:10;17.40;99.90
563;DHT22;266;49.514;8.294;2022-07-17T00:15:39;17.40;99.90
563;DHT22;266;49.514;8.294;2022-07-17T00:18:07;17.40;99.90
563;DHT22;266;49.514;8.294;2022-07-17T00:20:36;17.40;99.90
563;DHT22;266;49.514;8.294;2022-07-17T00:23:04;17.30;99.90
563;DHT22;266;49.514;8.294;2022-07-17T00:25:32;17.30;99.90
563;DHT22;266;49.514;8.294;2022-07-17T00:28:00;17.30;99.90
563;DHT22;266;49.514;8.294;2022-07-17T00:30:28;17.30;99.90
563;DHT22;266;49.514;8.294;2022-07-17T00:32:58;17.30;99.90
563;DHT22;266;49.514;8.294;2022-07-17T00:35:26;17.30;99.90
563;DHT22;266;49.514;8.294;2022-07-17T00:37:54;17.30;99.90
563;DHT22;266;49.514;8.294;2022-07-17T00:40:23;17.30;99.90
563;DHT22;266;49.514;8.294;2022-07-17T00:42:51;17.20;99.90
563;DHT22;266;49.514;8.294;2022-07-17T00:45:20;17.10;99.90
563;DHT22;266;49.514;8.294;2022-07-17T00:47:54;17.10;99.90
563;DHT22;266;49.514;8.294;2022-07-17T00:50:25;17.00;99.90
563;DHT22;266;49.514;8.294;2022-07-17T00:52:54;17.00;99.90
563;DHT22;266;49.514;8.294;2022-07-17T00:55:23;17.00;99.90
563;DHT22;266;49.514;8.294;2022-07-17T00:58:13;16.90;99.90
563;DHT22;266;49.514;8.294;2022-07-17T01:00:44;16.90;99.90
563;DHT22;266;49.514;8.294;2022-07-17T01:03:13;16.90;99.90
563;DHT22;266;49.514;8.294;2022-07-17T01:05:43;16.90;99.90
563;DHT22;266;49.514;8.294;2022-07-17T01:08:13;16.80;99.90
563;DHT22;266;49.514;8.294;2022-07-17T01:10:41;16.80;99.90
563;DHT22;266;49.514;8.294;2022-07-17T01:13:10;16.80;99.90
563;DHT22;266;49.514;8.294;2022-07-17T01:15:40;16.80;99.90
563;DHT22;266;49.514;8.294;2022-07-17T01:18:10;16.70;99.90
563;DHT22;266;49.514;8.294;2022-07-17T01:20:41;16.70;99.90
563;DHT22;266;49.514;8.294;2022-07-17T01:23:11;16.70;99.90
563;DHT22;266;49.514;8.294;2022-07-17T01:25:40;16.70;99.90
563;DHT22;266;49.514;8.294;2022-07-17T01:28:08;16.60;99.90
563;DHT22;266;49.514;8.294;2022-07-17T01:30:43;16.50;99.90
563;DHT22;266;49.514;8.294;2022-07-17T01:33:12;16.50;99.90
563;DHT22;266;49.514;8.294;2022-07-17T01:35:40;16.50;99.90
563;DHT22;266;49.514;8.294;2022-07-17T01:38:08;16.40;99.90
563;DHT22;266;49.514;8.294;2022-07-17T01:40:37;16.40;99.90
563;DHT22;266;49.514;8.294;2022-07-17T01:43:05;16.30;99.90
563;DHT22;266;49.514;8.294;2022-07-17T01:45:33;16.20;99.90
563;DHT22;266;49.514;8.294;2022-07-17T01:48:02;16.20;99.90
563;DHT22;266;49.514;8.294;2022-07-17T01:50:30;16.10;99.90
563;DHT22;266;49.514;8.294;2022-07-17T01:52:58;16.10;99.90
563;DHT22;266;49.514;8.294;2022-07-17T01:55:26;16.00;99.90
563;DHT22;266;49.514;8.294;2022-07-17T01:57:55;16.00;99.90
563;DHT22;266;49.514;8.294;2022-07-17T02:00:23;15.90;99.90
563;DHT22;266;49.514;8.294;2022-07-17T02:02:52;15.90;99.90
563;DHT22;266;49.514;8.294;2022-07-17T02:05:20;15.70;99.90
563;DHT22;266;49.514;8.294;2022-07-17T02:07:48;15.70;99.90
563;DHT22;266;49.514;8.294;2022-07-17T02:10:16;15.60;99.90
563;DHT22;266;49.514;8.294;2022-07-17T02:12:45;15.60;99.90
563;DHT22;266;49.514;8.294;2022-07-17T02:15:14;15.50;99.90
563;DHT22;266;49.514;8.294;2022-07-17T02:17:42;15.50;99.90
563;DHT22;266;49.514;8.294;2022-07-17T02:20:11;15.50;99.90
563;DHT22;266;49.514;8.294;2022-07-17T02:22:41;15.50;99.90
563;DHT22;266;49.514;8.294;2022-07-17T02:25:10;15.50;99.90
563;DHT22;266;49.514;8.294;2022-07-17T02:27:39;15.50;99.90
563;DHT22;266;49.514;8.294;2022-07-17T02:30:09;15.50;99.90
563;DHT22;266;49.514;8.294;2022-07-17T02:32:40;15.50;99.90
563;DHT22;266;49.514;8.294;2022-07-17T02:35:09;15.50;99.90
563;DHT22;266;49.514;8.294;2022-07-17T02:37:38;15.50;99.90
563;DHT22;266;49.514;8.294;2022-07-17T02:40:09;15.50;99.90
563;DHT22;266;49.514;8.294;2022-07-17T02:42:37;15.40;99.90
563;DHT22;266;49.514;8.294;2022-07-17T02:45:06;15.40;99.90
563;DHT22;266;49.514;8.294;2022-07-17T02:47:35;15.40;99.90
563;DHT22;266;49.514;8.294;2022-07-17T02:50:07;15.40;99.90
563;DHT22;266;49.514;8.294;2022-07-17T02:52:36;15.30;99.90
563;DHT22;266;49.514;8.294;2022-07-17T02:55:05;15.30;99.90
563;DHT22;266;49.514;8.294;2022-07-17T02:57:33;15.30;99.90
563;DHT22;266;49.514;8.294;2022-07-17T03:00:01;15.30;99.90
563;DHT22;266;49.514;8.294;2022-07-17T03:02:30;15.30;99.90
563;DHT22;266;49.514;8.294;2022-07-17T03:04:57;15.20;99.90
563;DHT22;266;49.514;8.294;2022-07-17T03:07:27;15.20;99.90
563;DHT22;266;49.514;8.294;2022-07-17T03:09:55;15.20;99.90
563;DHT22;266;49.514;8.294;2022-07-17T03:12:24;15.20;99.90
563;DHT22;266;49.514;8.294;2022-07-17T03:14:52;15.20;99.90
563;DHT22;266;49.514;8.294;2022-07-17T03:17:20;15.10;99.90
563;DHT22;266;49.514;8.294;2022-07-17T03:19:48;15.10;99.90
563;DHT22;266;49.514;8.294;2022-07-17T03:22:16;15.10;99.90
563;DHT22;266;49.514;8.294;2022-07-17T03:24:46;15.00;99.90
563;DHT22;266;49.514;8.294;2022-07-17T03:27:13;15.00;99.90
563;DHT22;266;49.514;8.294;2022-07-17T03:29:41;15.00;99.90
563;DHT22;266;49.514;8.294;2022-07-17T03:32:09;14.90;99.90
563;DHT22;266;49.514;8.294;2022-07-17T03:34:38;14.90;99.90
563;DHT22;266;49.514;8.294;2022-07-17T03:37:06;14.90;99.90
563;DHT22;266;49.514;8.294;2022-07-17T03:39:34;14.90;99.90
563;DHT22;266;49.514;8.294;2022-07-17T03:42:04;14.90;99.90
563;DHT22;266;49.514;8.294;2022-07-17T03:44:32;14.90;99.90
563;DHT22;266;49.514;8.294;2022-07-17T03:47:00;15.00;99.90
563;DHT22;266;49.514;8.294;2022-07-17T03:49:28;14.90;99.90
563;DHT22;266;49.514;8.294;2022-07-17T03:51:56;14.90;99.90
563;DHT22;266;49.514;8.294;2022-07-17T03:54:24;14.80;99.90
563;DHT22;266;49.514;8.294;2022-07-17T03:56:52;14.80;99.90
563;DHT22;266;49.514;8.294;2022-07-17T03:59:21;14.80;99.90
563;DHT22;266;49.514;8.294;2022-07-17T04:01:49;14.80;99.90
563;DHT22;266;49.514;8.294;2022-07-17T04:04:17;14.70;99.90
563;DHT22;266;49.514;8.294;2022-07-17T04:06:45;14.70;99.90
563;DHT22;266;49.514;8.294;2022-07-17T04:09:13;14.70;99.90
563;DHT22;266;49.514;8.294;2022-07-17T04:11:41;14.70;99.90
563;DHT22;266;49.514;8.294;2022-07-17T04:14:09;14.70;99.90
563;DHT22;266;49.514;8.294;2022-07-17T04:16:38;14.70;99.90
563;DHT22;266;49.514;8.294;2022-07-17T04:19:07;14.70;99.90
563;DHT22;266;49.514;8.294;2022-07-17T04:21:35;14.70;99.90
563;DHT22;266;49.514;8.294;2022-07-17T04:24:03;14.70;99.90
563;DHT22;266;49.514;8.294;2022-07-17T04:26:32;14.70;99.90
563;DHT22;266;49.514;8.294;2022-07-17T04:29:02;14.80;99.90
563;DHT22;266;49.514;8.294;2022-07-17T04:31:30;14.80;99.90
563;DHT22;266;49.514;8.294;2022-07-17T04:34:00;14.80;99.90
563;DHT22;266;49.514;8.294;2022-07-17T04:36:28;14.90;99.90
563;DHT22;266;49.514;8.294;2022-07-17T04:38:56;14.90;99.90
563;DHT22;266;49.514;8.294;2022-07-17T04:41:24;15.00;99.90
563;DHT22;266;49.514;8.294;2022-07-17T04:43:52;15.00;99.90
563;DHT22;266;49.514;8.294;2022-07-17T04:46:21;15.00;99.90
563;DHT22;266;49.514;8.294;2022-07-17T04:48:49;15.10;99.90
563;DHT22;266;49.514;8.294;2022-07-17T04:51:18;15.10;99.90
563;DHT22;266;49.514;8.294;2022-07-17T04:53:46;15.20;99.90
563;DHT22;266;49.514;8.294;2022-07-17T04:56:14;15.20;99.90
563;DHT22;266;49.514;8.294;2022-07-17T04:58:42;15.30;99.90
563;DHT22;266;49.514;8.294;2022-07-17T05:01:10;15.30;99.90
563;DHT22;266;49.514;8.294;2022-07-17T05:03:38;15.30;99.90
563;DHT22;266;49.514;8.294;2022-07-17T05:06:06;15.40;99.90
563;DHT22;266;49.514;8.294;2022-07-17T05:08:36;15.50;99.90
563;DHT22;266;49.514;8.294;2022-07-17T05:11:04;15.50;99.90
563;DHT22;266;49.514;8.294;2022-07-17T05:13:32;15.60;99.90
563;DHT22;266;49.514;8.294;2022-07-17T05:16:00;15.60;99.90
563;DHT22;266;49.514;8.294;2022-07-17T05:18:28;15.70;99.90
563;DHT22;266;49.514;8.294;2022-07-17T05:20:56;15.70;99.90
563;DHT22;266;49.514;8.294;2022-07-17T05:23:24;15.80;99.90
563;DHT22;266;49.514;8.294;2022-07-17T05:25:53;15.90;99.90
563;DHT22;266;49.514;8.294;2022-07-17T05:28:23;15.90;99.90
563;DHT22;266;49.514;8.294;2022-07-17T05:30:51;16.00;99.90
563;DHT22;266;49.514;8.294;2022-07-17T05:33:19;16.10;99.90
563;DHT22;266;49.514;8.294;2022-07-17T05:35:47;16.20;99.90
563;DHT22;266;49.514;8.294;2022-07-17T05:38:15;16.20;99.90
563;DHT22;266;49.514;8.294;2022-07-17T05:40:43;16.30;99.90
563;DHT22;266;49.514;8.294;2022-07-17T05:43:12;16.40;99.90
563;DHT22;266;49.514;8.294;2022-07-17T05:45:40;16.40;99.90
563;DHT22;266;49.514;8.294;2022-07-17T05:48:08;16.50;99.90
563;DHT22;266;49.514;8.294;2022-07-17T05:50:36;16.60;99.90
563;DHT22;266;49.514;8.294;2022-07-17T05:53:04;16.70;99.90
563;DHT22;266;49.514;8.294;2022-07-17T05:55:32;16.80;99.90
563;DHT22;266;49.514;8.294;2022-07-17T05:58:00;16.90;99.90
563;DHT22;266;49.514;8.294;2022-07-17T06:00:30;16.90;99.90
563;DHT22;266;49.514;8.294;2022-07-17T06:02:58;17.00;99.90
563;DHT22;266;49.514;8.294;2022-07-17T06:05:27;17.10;99.90
563;DHT22;266;49.514;8.294;2022-07-17T06:07:56;17.10;99.90
563;DHT22;266;49.514;8.294;2022-07-17T06:10:25;17.20;99.90
563;DHT22;266;49.514;8.294;2022-07-17T06:12:54;17.30;99.90
563;DHT22;266;49.514;8.294;2022-07-17T06:15:23;17.30;99.90
563;DHT22;266;49.514;8.294;2022-07-17T06:17:52;17.50;99.90
563;DHT22;266;49.514;8.294;2022-07-17T06:20:20;17.50;99.90
563;DHT22;266;49.514;8.294;2022-07-17T06:22:48;17.60;99.90
563;DHT22;266;49.514;8.294;2022-07-17T06:25:16;17.70;99.90
563;DHT22;266;49.514;8.294;2022-07-17T06:27:44;17.80;99.90
563;DHT22;266;49.514;8.294;2022-07-17T06:30:14;17.90;99.90
563;DHT22;266;49.514;8.294;2022-07-17T06:32:42;18.00;99.90
563;DHT22;266;49.514;8.294;2022-07-17T06:35:12;18.00;99.90
563;DHT22;266;49.514;8.294;2022-07-17T06:37:40;18.10;99.90
563;DHT22;266;49.514;8.294;2022-07-17T06:40:08;18.20;99.90
563;DHT22;266;49.514;8.294;2022-07-17T06:42:36;18.30;99.90
563;DHT22;266;49.514;8.294;2022-07-17T06:45:05;18.40;99.90
563;DHT22;266;49.514;8.294;2022-07-17T06:47:33;18.50;99.90
563;DHT22;266;49.514;8.294;2022-07-17T06:50:01;18.60;99.90
563;DHT22;266;49.514;8.294;2022-07-17T06:52:31;18.70;99.90
563;DHT22;266;49.514;8.294;2022-07-17T06:54:59;18.80;99.90
563;DHT22;266;49.514;8.294;2022-07-17T06:57:27;18.90;99.90
563;DHT22;266;49.514;8.294;2022-07-17T06:59:55;19.00;99.90
563;DHT22;266;49.514;8.294;2022-07-17T07:02:23;19.10;99.90
563;DHT22;266;49.514;8.294;2022-07-17T07:04:51;19.20;99.90
563;DHT22;266;49.514;8.294;2022-07-17T07:07:19;19.30;99.90
563;DHT22;266;49.514;8.294;2022-07-17T07:09:49;19.40;99.90
563;DHT22;266;49.514;8.294;2022-07-17T07:12:17;19.50;99.90
563;DHT22;266;49.514;8.294;2022-07-17T07:14:45;19.60;99.90
563;DHT22;266;49.514;8.294;2022-07-17T07:17:13;19.70;99.90
563;DHT22;266;49.514;8.294;2022-07-17T07:19:41;19.80;99.90
563;DHT22;266;49.514;8.294;2022-07-17T07:22:09;19.90;99.90
563;DHT22;266;49.514;8.294;2022-07-17T07:24:37;20.00;99.90
563;DHT22;266;49.514;8.294;2022-07-17T07:27:06;20.10;99.90
563;DHT22;266;49.514;8.294;2022-07-17T07:29:34;20.20;99.90
563;DHT22;266;49.514;8.294;2022-07-17T07:32:03;20.30;99.90
563;DHT22;266;49.514;8.294;2022-07-17T07:34:31;20.40;99.90
563;DHT22;266;49.514;8.294;2022-07-17T07:36:59;20.50;99.90
563;DHT22;266;49.514;8.294;2022-07-17T07:39:27;20.60;99.90
563;DHT22;266;49.514;8.294;2022-07-17T07:41:55;20.70;99.90
563;DHT22;266;49.514;8.294;2022-07-17T07:44:24;20.80;99.90
563;DHT22;266;49.514;8.294;2022-07-17T07:46:58;20.90;99.90
563;DHT22;266;49.514;8.294;2022-07-17T07:49:26;21.00;99.90
563;DHT22;266;49.514;8.294;2022-07-17T07:51:54;21.10;99.90
563;DHT22;266;49.514;8.294;2022-07-17T07:54:29;21.30;99.90
563;DHT22;266;49.514;8.294;2022-07-17T07:56:58;21.60;99.90
563;DHT22;266;49.514;8.294;2022-07-17T07:59:28;21.70;99.90
563;DHT22;266;49.514;8.294;2022-07-17T08:01:59;21.80;99.90
563;DHT22;266;49.514;8.294;2022-07-17T08:04:27;21.90;99.90
563;DHT22;266;49.514;8.294;2022-07-17T08:06:56;21.90;99.90
563;DHT22;266;49.514;8.294;2022-07-17T08:09:24;22.00;99.90
563;DHT22;266;49.514;8.294;2022-07-17T08:11:52;22.30;99.90
563;DHT22;266;49.514;8.294;2022-07-17T08:14:20;22.40;99.90
563;DHT22;266;49.514;8.294;2022-07-17T08:16:49;22.60;99.90
563;DHT22;266;49.514;8.294;2022-07-17T08:19:17;22.80;99.90
563;DHT22;266;49.514;8.294;2022-07-17T08:21:45;23.00;99.90
563;DHT22;266;49.514;8.294;2022-07-17T08:24:13;23.20;99.90
563;DHT22;266;49.514;8.294;2022-07-17T08:26:43;23.40;99.90
563;DHT22;266;49.514;8.294;2022-07-17T08:29:11;23.60;99.90
563;DHT22;266;49.514;8.294;2022-07-17T08:31:39;23.80;99.90
563;DHT22;266;49.514;8.294;2022-07-17T08:34:08;24.30;99.90
563;DHT22;266;49.514;8.294;2022-07-17T08:36:36;24.80;99.90
563;DHT22;266;49.514;8.294;2022-07-17T08:39:04;25.30;99.90
563;DHT22;266;49.514;8.294;2022-07-17T08:41:32;25.80;99.90
563;DHT22;266;49.514;8.294;2022-07-17T08:44:04;26.30;99.90
563;DHT22;266;49.514;8.294;2022-07-17T08:46:35;26.70;99.90
563;DHT22;266;49.514;8.294;2022-07-17T08:49:04;27.00;99.90
563;DHT22;266;49.514;8.294;2022-07-17T08:51:34;27.60;99.90
563;DHT22;266;49.514;8.294;2022-07-17T08:54:11;28.00;99.90
563;DHT22;266;49.514;8.294;2022-07-17T08:56:40;28.40;99.90
563;DHT22;266;49.514;8.294;2022-07-17T08:59:08;28.70;99.90
563;DHT22;266;49.514;8.294;2022-07-17T09:01:36;28.90;99.90
563;DHT22;266;49.514;8.294;2022-07-17T09:04:05;29.10;99.90
563;DHT22;266;49.514;8.294;2022-07-17T09:06:36;29.40;99.90
563;DHT22;266;49.514;8.294;2022-07-17T09:09:06;29.50;99.90
563;DHT22;266;49.514;8.294;2022-07-17T09:11:44;29.60;99.90
563;DHT22;266;49.514;8.294;2022-07-17T09:14:12;29.70;99.90
563;DHT22;266;49.514;8.294;2022-07-17T09:16:52;30.00;99.90
563;DHT22;266;49.514;8.294;2022-07-17T09:19:27;30.30;99.90
563;DHT22;266;49.514;8.294;2022-07-17T09:22:09;30.30;99.90
563;DHT22;266;49.514;8.294;2022-07-17T09:24:44;30.50;99.90
563;DHT22;266;49.514;8.294;2022-07-17T09:27:14;30.60;99.90
563;DHT22;266;49.514;8.294;2022-07-17T09:29:54;30.90;99.90
563;DHT22;266;49.514;8.294;2022-07-17T09:32:27;31.20;99.90
563;DHT22;266;49.514;8.294;2022-07-17T09:34:57;31.50;99.90
563;DHT22;266;49.514;8.294;2022-07-17T09:37:28;31.30;99.90
563;DHT22;266;49.514;8.294;2022-07-17T09:39:57;31.30;99.90
563;DHT22;266;49.514;8.294;2022-07-17T09:42:27;31.30;99.90
563;DHT22;266;49.514;8.294;2022-07-17T09:44:57;31.50;99.90
563;DHT22;266;49.514;8.294;2022-07-17T09:47:27;31.20;99.90
563;DHT22;266;49.514;8.294;2022-07-17T09:49:56;30.40;99.90
563;DHT22;266;49.514;8.294;2022-07-17T09:52:27;30.00;99.90
563;DHT22;266;49.514;8.294;2022-07-17T09:54:57;30.40;99.90
563;DHT22;266;49.514;8.294;2022-07-17T09:57:47;30.80;99.90
563;DHT22;266;49.514;8.294;2022-07-17T10:00:16;31.20;99.90
563;DHT22;266;49.514;8.294;2022-07-17T10:02:50;31.30;99.90
563;DHT22;266;49.514;8.294;2022-07-17T10:05:18;31.00;99.90
563;DHT22;266;49.514;8.294;2022-07-17T10:07:47;30.40;99.90
563;DHT22;266;49.514;8.294;2022-07-17T10:10:17;30.70;99.90
563;DHT22;266;49.514;8.294;2022-07-17T10:12:48;31.10;99.90
563;DHT22;266;49.514;8.294;2022-07-17T10:15:17;31.10;99.90
563;DHT22;266;49.514;8.294;2022-07-17T10:17:47;31.30;99.90
563;DHT22;266;49.514;8.294;2022-07-17T10:20:24;31.60;99.90
563;DHT22;266;49.514;8.294;2022-07-17T10:22:53;31.80;99.90
563;DHT22;266;49.514;8.294;2022-07-17T10:25:22;32.10;99.90
563;DHT22;266;49.514;8.294;2022-07-17T10:27:52;32.30;99.90
563;DHT22;266;49.514;8.294;2022-07-17T10:30:24;32.30;99.90
563;DHT22;266;49.514;8.294;2022-07-17T10:32:54;32.30;99.90
563;DHT22;266;49.514;8.294;2022-07-17T10:35:25;32.50;99.90
563;DHT22;266;49.514;8.294;2022-07-17T10:37:57;32.70;99.90
563;DHT22;266;49.514;8.294;2022-07-17T10:40:26;33.10;99.90
563;DHT22;266;49.514;8.294;2022-07-17T10:42:56;33.50;99.90
563;DHT22;266;49.514;8.294;2022-07-17T10:45:27;33.80;99.90
563;DHT22;266;49.514;8.294;2022-07-17T10:48:01;33.90;99.90
563;DHT22;266;49.514;8.294;2022-07-17T10:50:31;33.90;99.90
563;DHT22;266;49.514;8.294;2022-07-17T10:53:09;34.20;99.90
563;DHT22;266;49.514;8.294;2022-07-17T10:55:40;33.60;99.90
563;DHT22;266;49.514;8.294;2022-07-17T10:58:20;33.60;99.90
563;DHT22;266;49.514;8.294;2022-07-17T11:01:03;33.90;99.90
563;DHT22;266;49.514;8.294;2022-07-17T11:03:36;34.00;99.90
563;DHT22;266;49.514;8.294;2022-07-17T11:06:10;33.90;99.90
563;DHT22;266;49.514;8.294;2022-07-17T11:08:45;33.50;99.90
563;DHT22;266;49.514;8.294;2022-07-17T11:11:15;33.60;99.90
563;DHT22;266;49.514;8.294;2022-07-17T11:13:53;33.70;99.90
563;DHT22;266;49.514;8.294;2022-07-17T11:16:27;33.90;99.90
563;DHT22;266;49.514;8.294;2022-07-17T11:18:56;34.10;99.90
563;DHT22;266;49.514;8.294;2022-07-17T11:21:25;34.20;99.90
563;DHT22;266;49.514;8.294;2022-07-17T11:23:56;34.20;99.90
563;DHT22;266;49.514;8.294;2022-07-17T11:26:24;34.50;99.90
563;DHT22;266;49.514;8.294;2022-07-17T11:28:56;34.40;99.90
563;DHT22;266;49.514;8.294;2022-07-17T11:31:29;34.60;99.90
563;DHT22;266;49.514;8.294;2022-07-17T11:34:01;34.60;99.90
563;DHT22;266;49.514;8.294;2022-07-17T11:36:32;34.30;99.90
563;DHT22;266;49.514;8.294;2022-07-17T11:39:04;34.10;99.90
563;DHT22;266;49.514;8.294;2022-07-17T11:41:35;34.30;99.90
563;DHT22;266;49.514;8.294;2022-07-17T11:44:04;34.30;99.90
563;DHT22;266;49.514;8.294;2022-07-17T11:46:33;34.50;99.90
563;DHT22;266;49.514;8.294;2022-07-17T11:49:02;34.60;99.90
563;DHT22;266;49.514;8.294;2022-07-17T11:51:38;34.70;99.90
563;DHT22;266;49.514;8.294;2022-07-17T11:54:09;34.60;99.90
563;DHT22;266;49.514;8.294;2022-07-17T11:56:38;34.80;99.90
563;DHT22;266;49.514;8.294;2022-07-17T11:59:07;34.80;99.90
563;DHT22;266;49.514;8.294;2022-07-17T12:01:40;34.80;99.90
563;DHT22;266;49.514;8.294;2022-07-17T12:04:12;34.80;99.90
563;DHT22;266;49.514;8.294;2022-07-17T12:06:44;34.70;99.90
563;DHT22;266;49.514;8.294;2022-07-17T12:09:14;34.80;99.90
563;DHT22;266;49.514;8.294;2022-07-17T12:11:46;35.00;99.90
563;DHT22;266;49.514;8.294;2022-07-17T12:14:15;34.90;99.90
563;DHT22;266;49.514;8.294;2022-07-17T12:16:43;34.80;99.90
563;DHT22;266;49.514;8.294;2022-07-17T12:19:13;34.60;99.90
563;DHT22;266;49.514;8.294;2022-07-17T12:21:54;34.90;99.90
563;DHT22;266;49.514;8.294;2022-07-17T12:24:29;34.90;99.90
563;DHT22;266;49.514;8.294;2022-07-17T12:26:58;34.90;99.90
563;DHT22;266;49.514;8.294;2022-07-17T12:29:27;34.80;99.90
563;DHT22;266;49.514;8.294;2022-07-17T12:32:03;34.50;99.90
563;DHT22;266;49.514;8.294;2022-07-17T12:34:31;34.60;99.90
563;DHT22;266;49.514;8.294;2022-07-17T12:36:59;34.40;99.90
563;DHT22;266;49.514;8.294;2022-07-17T12:39:29;34.40;99.90
563;DHT22;266;49.514;8.294;2022-07-17T12:41:57;34.40;99.90
563;DHT22;266;49.514;8.294;2022-07-17T12:44:25;34.00;99.90
563;DHT22;266;49.514;8.294;2022-07-17T12:46:53;33.90;99.90
563;DHT22;266;49.514;8.294;2022-07-17T12:49:21;33.90;99.90
563;DHT22;266;49.514;8.294;2022-07-17T12:51:50;34.10;99.90
563;DHT22;266;49.514;8.294;2022-07-17T12:54:18;34.00;99.90
563;DHT22;266;49.514;8.294;2022-07-17T12:56:47;34.00;99.90
563;DHT22;266;49.514;8.294;2022-07-17T12:59:16;34.00;99.90
563;DHT22;266;49.514;8.294;2022-07-17T13:01:44;33.80;99.90
563;DHT22;266;49.514;8.294;2022-07-17T13:04:14;34.00;99.90
563;DHT22;266;49.514;8.294;2022-07-17T13:06:42;34.10;99.90
563;DHT22;266;49.514;8.294;2022-07-17T13:09:10;33.80;99.90
563;DHT22;266;49.514;8.294;2022-07-17T13:11:40;33.50;99.90
563;DHT22;266;49.514;8.294;2022-07-17T13:14:10;33.60;99.90
563;DHT22;266;49.514;8.294;2022-07-17T13:16:39;33.80;99.90
563;DHT22;266;49.514;8.294;2022-07-17T13:19:07;33.70;99.90
563;DHT22;266;49.514;8.294;2022-07-17T13:21:35;33.60;99.90
563;DHT22;266;49.514;8.294;2022-07-17T13:24:04;33.60;99.90
563;DHT22;266;49.514;8.294;2022-07-17T13:26:33;33.60;99.90
563;DHT22;266;49.514;8.294;2022-07-17T13:29:01;33.70;99.90
563;DHT22;266;49.514;8.294;2022-07-17T13:31:31;33.90;99.90
563;DHT22;266;49.514;8.294;2022-07-17T13:33:59;34.20;99.90
563;DHT22;266;49.514;8.294;2022-07-17T13:36:28;34.30;99.90
563;DHT22;266;49.514;8.294;2022-07-17T13:38:56;33.80;99.90
563;DHT22;266;49.514;8.294;2022-07-17T13:41:24;33.60;99.90
563;DHT22;266;49.514;8.294;2022-07-17T13:43:52;33.50;99.90
563;DHT22;266;49.514;8.294;2022-07-17T13:46:20;33.50;99.90
563;DHT22;266;49.514;8.294;2022-07-17T13:48:50;33.60;99.90
563;DHT22;266;49.514;8.294;2022-07-17T13:51:18;33.80;99.90
563;DHT22;266;49.514;8.294;2022-07-17T13:53:45;34.00;99.90
563;DHT22;266;49.514;8.294;2022-07-17T13:56:13;33.90;99.90
563;DHT22;266;49.514;8.294;2022-07-17T13:58:42;34.00;99.90
563;DHT22;266;49.514;8.294;2022-07-17T14:01:11;34.00;99.90
563;DHT22;266;49.514;8.294;2022-07-17T14:03:47;33.80;99.90
563;DHT22;266;49.514;8.294;2022-07-17T14:06:17;33.20;99.90
563;DHT22;266;49.514;8.294;2022-07-17T14:08:45;33.30;99.90
563;DHT22;266;49.514;8.294;2022-07-17T14:11:13;33.10;99.90
563;DHT22;266;49.514;8.294;2022-07-17T14:13:41;33.00;99.90
563;DHT22;266;49.514;8.294;2022-07-17T14:16:16;32.40;99.90
563;DHT22;266;49.514;8.294;2022-07-17T14:18:44;32.40;99.90
563;DHT22;266;49.514;8.294;2022-07-17T14:21:33;32.30;99.90
563;DHT22;266;49.514;8.294;2022-07-17T14:24:02;32.50;99.90
563;DHT22;266;49.514;8.294;2022-07-17T14:26:31;32.30;99.90
563;DHT22;266;49.514;8.294;2022-07-17T14:28:59;32.10;99.90
563;DHT22;266;49.514;8.294;2022-07-17T14:31:28;32.10;99.90
563;DHT22;266;49.514;8.294;2022-07-17T14:33:56;32.10;99.90
563;DHT22;266;49.514;8.294;2022-07-17T14:36:24;32.10;99.90
563;DHT22;266;49.514;8.294;2022-07-17T14:38:54;32.10;99.90
563;DHT22;266;49.514;8.294;2022-07-17T14:41:22;32.10;99.90
563;DHT22;266;49.514;8.294;2022-07-17T14:43:50;32.10;99.90
563;DHT22;266;49.514;8.294;2022-07-17T14:46:18;32.20;99.90
563;DHT22;266;49.514;8.294;2022-07-17T14:48:46;32.30;99.90
563;DHT22;266;49.514;8.294;2022-07-17T14:51:14;31.80;99.90
563;DHT22;266;49.514;8.294;2022-07-17T14:53:42;31.50;99.90
563;DHT22;266;49.514;8.294;2022-07-17T14:56:12;31.40;99.90
563;DHT22;266;49.514;8.294;2022-07-17T14:58:40;31.40;99.90
563;DHT22;266;49.514;8.294;2022-07-17T15:01:08;31.40;99.90
563;DHT22;266;49.514;8.294;2022-07-17T15:03:37;31.30;99.90
563;DHT22;266;49.514;8.294;2022-07-17T15:06:05;31.30;99.90
563;DHT22;266;49.514;8.294;2022-07-17T15:08:33;31.30;99.90
563;DHT22;266;49.514;8.294;2022-07-17T15:11:03;31.30;99.90
563;DHT22;266;49.514;8.294;2022-07-17T15:13:32;31.20;99.90
563;DHT22;266;49.514;8.294;2022-07-17T15:16:01;31.10;99.90
563;DHT22;266;49.514;8.294;2022-07-17T15:18:29;31.10;99.90
563;DHT22;266;49.514;8.294;2022-07-17T15:20:57;30.90;99.90
563;DHT22;266;49.514;8.294;2022-07-17T15:23:25;30.80;99.90
563;DHT22;266;49.514;8.294;2022-07-17T15:25:55;30.70;99.90
563;DHT22;266;49.514;8.294;2022-07-17T15:28:23;30.70;99.90
563;DHT22;266;49.514;8.294;2022-07-17T15:30:53;30.60;99.90
563;DHT22;266;49.514;8.294;2022-07-17T15:33:21;30.50;99.90
563;DHT22;266;49.514;8.294;2022-07-17T15:35:52;30.40;99.90
563;DHT22;266;49.514;8.294;2022-07-17T15:38:20;30.30;99.90
563;DHT22;266;49.514;8.294;2022-07-17T15:40:48;30.40;99.90
563;DHT22;266;49.514;8.294;2022-07-17T15:43:16;30.40;99.90
563;DHT22;266;49.514;8.294;2022-07-17T15:45:44;30.40;99.90
563;DHT22;266;49.514;8.294;2022-07-17T15:48:13;30.40;99.90
563;DHT22;266;49.514;8.294;2022-07-17T15:50:42;30.30;99.90
563;DHT22;266;49.514;8.294;2022-07-17T15:53:12;30.40;99.90
563;DHT22;266;49.514;8.294;2022-07-17T15:55:40;30.40;99.90
563;DHT22;266;49.514;8.294;2022-07-17T15:58:08;30.30;99.90
563;DHT22;266;49.514;8.294;2022-07-17T16:00:36;30.20;99.90
563;DHT22;266;49.514;8.294;2022-07-17T16:03:04;30.10;99.90
563;DHT22;266;49.514;8.294;2022-07-17T16:05:34;30.00;99.90
563;DHT22;266;49.514;8.294;2022-07-17T16:08:02;29.90;99.90
563;DHT22;266;49.514;8.294;2022-07-17T16:10:30;29.70;99.90
563;DHT22;266;49.514;8.294;2022-07-17T16:12:59;29.70;99.90
563;DHT22;266;49.514;8.294;2022-07-17T16:15:27;29.80;99.90
563;DHT22;266;49.514;8.294;2022-07-17T16:17:55;29.70;99.90
563;DHT22;266;49.514;8.294;2022-07-17T16:20:23;29.60;99.90
563;DHT22;266;49.514;8.294;2022-07-17T16:22:54;29.70;99.90
563;DHT22;266;49.514;8.294;2022-07-17T16:25:22;29.70;99.90
563;DHT22;266;49.514;8.294;2022-07-17T16:27:50;29.70;99.90
563;DHT22;266;49.514;8.294;2022-07-17T16:30:18;29.70;99.90
563;DHT22;266;49.514;8.294;2022-07-17T16:32:47;29.60;99.90
563;DHT22;266;49.514;8.294;2022-07-17T16:35:15;29.60;99.90
563;DHT22;266;49.514;8.294;2022-07-17T16:37:43;29.50;99.90
563;DHT22;266;49.514;8.294;2022-07-17T16:40:13;29.40;99.90
563;DHT22;266;49.514;8.294;2022-07-17T16:42:41;29.30;99.90
563;DHT22;266;49.514;8.294;2022-07-17T16:45:09;29.30;99.90
563;DHT22;266;49.514;8.294;2022-07-17T16:47:37;29.20;99.90